createdAt,value
2018-09-19T00:00:09.753Z,98.10
2018-09-19T00:02:40.196Z,98.60
2018-09-19T00:05:09.742Z,98.70
2018-09-19T00:07:38.398Z,99.00
2018-09-19T00:10:07.246Z,99.20
2018-09-19T00:12:35.899Z,99.50
2018-09-19T00:15:04.755Z,99.30
2018-09-19T00:17:34.502Z,99.80
2018-09-19T00:20:03.211Z,99.90
2018-09-19T00:22:32.939Z,99.90
2018-09-19T00:25:02.612Z,99.90
2018-09-19T00:27:31.424Z,99.90
2018-09-19T00:30:00.710Z,99.80
2018-09-19T00:32:31.520Z,99.90
2018-09-19T00:35:00.847Z,99.80
2018-09-19T00:37:29.492Z,99.90
2018-09-19T00:40:00.272Z,99.90
2018-09-19T00:42:28.967Z,99.90
2018-09-19T00:44:59.156Z,99.90
2018-09-19T00:47:27.809Z,99.90
2018-09-19T00:49:56.949Z,99.90
2018-09-19T00:52:25.662Z,99.90
2018-09-19T00:54:56.432Z,99.90
2018-09-19T00:57:25.117Z,99.90
2018-09-19T00:59:56.333Z,99.90
2018-09-19T01:02:33.622Z,99.90
2018-09-19T01:05:02.456Z,99.90
2018-09-19T01:07:31.932Z,99.90
2018-09-19T01:10:00.628Z,99.90
2018-09-19T01:12:29.286Z,99.90
2018-09-19T01:14:58.772Z,99.90
2018-09-19T01:17:29.184Z,99.90
2018-09-19T01:19:57.864Z,99.90
2018-09-19T01:22:26.622Z,99.90
2018-09-19T01:24:55.351Z,99.90
2018-09-19T01:27:24.021Z,99.90
2018-09-19T01:29:53.879Z,99.90
2018-09-19T01:32:22.887Z,99.90
2018-09-19T01:34:53.320Z,99.90
2018-09-19T01:37:22.004Z,99.90
2018-09-19T01:39:53.451Z,99.90
2018-09-19T01:42:22.164Z,99.90
2018-09-19T01:44:52.066Z,99.90
2018-09-19T01:47:20.715Z,99.90
2018-09-19T01:49:49.399Z,99.90
2018-09-19T01:52:18.205Z,99.90
2018-09-19T01:54:46.903Z,99.90
2018-09-19T01:57:15.656Z,99.90
2018-09-19T01:59:45.289Z,99.90
2018-09-19T02:02:13.974Z,99.90
2018-09-19T02:04:42.647Z,99.90
2018-09-19T02:07:11.451Z,99.90
2018-09-19T02:09:40.101Z,99.90
2018-09-19T02:12:08.776Z,99.90
2018-09-19T02:14:37.439Z,99.90
2018-09-19T02:17:06.101Z,99.90
2018-09-19T02:19:34.805Z,99.90
2018-09-19T02:22:04.060Z,99.90
2018-09-19T02:24:32.774Z,99.90
2018-09-19T02:27:01.566Z,99.90
2018-09-19T02:29:30.468Z,99.90
2018-09-19T02:31:59.126Z,99.90
2018-09-19T02:34:27.909Z,99.90
2018-09-19T02:36:56.568Z,99.90
2018-09-19T02:39:25.257Z,99.90
2018-09-19T02:41:53.964Z,99.90
2018-09-19T02:44:22.695Z,99.90
2018-09-19T02:46:51.421Z,99.90
2018-09-19T02:49:20.101Z,99.90
2018-09-19T02:51:48.739Z,99.90
2018-09-19T02:54:17.405Z,99.90
2018-09-19T02:56:46.099Z,99.90
2018-09-19T02:59:14.763Z,99.90
2018-09-19T03:01:43.474Z,99.90
2018-09-19T03:04:12.145Z,99.90
2018-09-19T03:06:40.824Z,99.90
2018-09-19T03:09:09.495Z,99.90
2018-09-19T03:11:38.930Z,99.90
2018-09-19T03:14:07.757Z,99.90
2018-09-19T03:16:36.418Z,99.90
2018-09-19T03:19:05.084Z,99.90
2018-09-19T03:21:33.908Z,99.90
2018-09-19T03:24:02.559Z,99.90
2018-09-19T03:26:32.493Z,99.90
2018-09-19T03:29:01.244Z,99.90
2018-09-19T03:31:29.934Z,99.90
2018-09-19T03:33:58.921Z,99.90
2018-09-19T03:36:27.583Z,99.90
2018-09-19T03:38:56.383Z,99.90
2018-09-19T03:41:25.036Z,99.90
2018-09-19T03:43:53.796Z,99.90
2018-09-19T03:46:22.458Z,99.90
2018-09-19T03:48:51.106Z,99.90
2018-09-19T03:51:19.836Z,99.90
2018-09-19T03:53:48.554Z,99.90
2018-09-19T03:56:17.194Z,99.90
2018-09-19T03:58:55.651Z,99.90
2018-09-19T04:01:27.189Z,99.90
2018-09-19T04:03:55.886Z,99.90
2018-09-19T04:06:26.776Z,99.90
2018-09-19T04:08:55.427Z,99.90
2018-09-19T04:11:24.079Z,99.90
2018-09-19T04:13:53.180Z,99.90
2018-09-19T04:16:21.895Z,99.90
2018-09-19T04:18:50.550Z,99.90
2018-09-19T04:21:19.210Z,99.90
2018-09-19T04:23:47.815Z,99.90
2018-09-19T04:26:16.463Z,99.90
2018-09-19T04:28:45.088Z,99.90
2018-09-19T04:31:13.780Z,99.90
2018-09-19T04:33:42.469Z,99.90
2018-09-19T04:36:11.108Z,99.90
2018-09-19T04:38:39.749Z,99.90
2018-09-19T04:41:08.400Z,99.90
2018-09-19T04:43:37.037Z,99.90
2018-09-19T04:46:05.682Z,99.90
2018-09-19T04:48:34.317Z,99.90
2018-09-19T04:51:02.928Z,99.90
2018-09-19T04:53:31.581Z,99.90
2018-09-19T04:56:00.208Z,99.90
2018-09-19T04:58:28.817Z,99.90
2018-09-19T05:00:57.437Z,99.90
2018-09-19T05:03:26.099Z,99.90
2018-09-19T05:05:54.778Z,99.90
2018-09-19T05:08:23.410Z,99.90
2018-09-19T05:10:52.033Z,99.90
2018-09-19T05:13:20.676Z,99.90
2018-09-19T05:15:49.328Z,99.90
2018-09-19T05:18:17.950Z,99.90
2018-09-19T05:20:46.580Z,99.90
2018-09-19T05:23:15.204Z,99.90
2018-09-19T05:25:43.807Z,99.90
2018-09-19T05:28:12.436Z,99.90
2018-09-19T05:30:41.062Z,99.90
2018-09-19T05:33:09.697Z,99.90
2018-09-19T05:35:38.322Z,99.90
2018-09-19T05:38:07.003Z,99.90
2018-09-19T05:40:35.640Z,99.90
2018-09-19T05:43:04.287Z,99.90
2018-09-19T05:45:32.923Z,99.90
2018-09-19T05:48:01.552Z,99.90
2018-09-19T05:50:30.177Z,99.90
2018-09-19T05:52:58.852Z,99.90
2018-09-19T05:55:27.470Z,99.90
2018-09-19T05:57:56.097Z,99.90
2018-09-19T06:00:24.758Z,99.90
2018-09-19T06:02:53.385Z,99.90
2018-09-19T06:05:22.037Z,99.90
2018-09-19T06:07:50.661Z,99.90
2018-09-19T06:10:19.345Z,99.90
2018-09-19T06:12:47.990Z,99.90
2018-09-19T06:15:16.663Z,99.90
2018-09-19T06:17:45.390Z,99.90
2018-09-19T06:20:14.046Z,99.90
2018-09-19T06:22:42.674Z,99.90
2018-09-19T06:25:11.317Z,99.90
2018-09-19T06:27:39.976Z,99.90
2018-09-19T06:30:08.606Z,99.90
2018-09-19T06:32:37.260Z,99.90
2018-09-19T06:35:06.240Z,99.90
2018-09-19T06:37:34.872Z,99.90
2018-09-19T06:40:03.673Z,99.90
2018-09-19T06:42:32.270Z,99.90
2018-09-19T06:45:00.892Z,99.90
2018-09-19T06:47:29.507Z,99.90
2018-09-19T06:49:58.148Z,99.90
2018-09-19T06:52:26.786Z,99.90
2018-09-19T06:54:55.444Z,99.90
2018-09-19T06:57:24.120Z,99.90
2018-09-19T06:59:52.899Z,99.90
2018-09-19T07:02:21.531Z,99.90
2018-09-19T07:04:50.293Z,99.90
2018-09-19T07:07:18.926Z,99.90
2018-09-19T07:09:47.561Z,99.90
2018-09-19T07:12:16.196Z,99.90
2018-09-19T07:14:45.244Z,99.90
2018-09-19T07:17:13.981Z,99.90
2018-09-19T07:19:42.607Z,99.90
2018-09-19T07:22:12.451Z,99.60
2018-09-19T07:24:41.127Z,99.60
2018-09-19T07:27:09.784Z,98.90
2018-09-19T07:29:38.450Z,98.20
2018-09-19T07:32:07.584Z,97.60
2018-09-19T07:34:36.293Z,96.90
2018-09-19T07:37:04.967Z,96.10
2018-09-19T07:39:33.631Z,95.50
2018-09-19T07:42:02.331Z,95.00
2018-09-19T07:44:31.044Z,94.40
2018-09-19T07:47:02.389Z,93.70
2018-09-19T07:49:31.057Z,93.10
2018-09-19T07:51:59.743Z,92.80
2018-09-19T07:54:28.433Z,92.50
2018-09-19T07:56:58.841Z,91.70
2018-09-19T07:59:28.246Z,91.80
2018-09-19T08:01:58.786Z,90.70
2018-09-19T08:04:29.669Z,90.20
2018-09-19T08:07:03.218Z,88.60
2018-09-19T08:09:33.863Z,88.00
2018-09-19T08:14:46.177Z,86.20
2018-09-19T08:17:17.925Z,84.30
2018-09-19T08:19:48.141Z,83.20
2018-09-19T08:22:23.415Z,82.70
2018-09-19T08:25:04.568Z,81.60
2018-09-19T08:27:37.179Z,81.00
2018-09-19T08:30:06.693Z,80.80
2018-09-19T08:32:39.685Z,79.30
2018-09-19T08:35:12.424Z,77.60
2018-09-19T08:37:42.777Z,76.00
2018-09-19T08:40:17.666Z,75.10
2018-09-19T08:42:50.182Z,74.30
2018-09-19T08:48:04.892Z,71.40
2018-09-19T08:50:42.989Z,70.80
2018-09-19T08:53:20.053Z,70.90
2018-09-19T08:55:57.443Z,69.60
2018-09-19T08:58:26.326Z,69.20
2018-09-19T09:01:06.952Z,68.60
2018-09-19T09:03:35.808Z,67.30
2018-09-19T09:06:05.716Z,67.10
2018-09-19T09:08:35.627Z,66.00
2018-09-19T09:11:04.912Z,65.90
2018-09-19T09:13:33.737Z,65.20
2018-09-19T09:16:02.358Z,65.00
2018-09-19T09:18:31.017Z,65.00
2018-09-19T09:20:59.717Z,65.20
2018-09-19T09:23:28.399Z,65.10
2018-09-19T09:25:57.676Z,65.00
2018-09-19T09:28:26.307Z,64.40
2018-09-19T09:30:54.967Z,64.00
2018-09-19T09:33:23.636Z,64.40
2018-09-19T09:35:52.331Z,63.90
2018-09-19T09:38:21.361Z,63.20
2018-09-19T09:40:50.614Z,62.70
2018-09-19T09:43:19.322Z,62.70
2018-09-19T09:45:51.076Z,62.60
2018-09-19T09:48:19.775Z,62.20
2018-09-19T09:50:48.452Z,61.40
2018-09-19T09:53:17.152Z,61.30
2018-09-19T09:55:45.818Z,60.50
2018-09-19T09:58:14.476Z,59.90
2018-09-19T10:00:43.435Z,58.70
2018-09-19T10:03:12.796Z,58.30
2018-09-19T10:05:41.693Z,57.90
2018-09-19T10:08:10.368Z,56.80
2018-09-19T10:10:39.285Z,56.70
2018-09-19T10:13:07.911Z,56.40
2018-09-19T10:15:36.581Z,55.40
2018-09-19T10:18:05.339Z,54.80
2018-09-19T10:20:34.060Z,54.50
2018-09-19T10:23:02.705Z,53.70
2018-09-19T10:25:31.400Z,54.00
2018-09-19T10:28:00.060Z,53.30
2018-09-19T10:30:29.725Z,52.80
2018-09-19T10:32:58.372Z,52.40
2018-09-19T10:35:27.098Z,52.10
2018-09-19T10:37:55.730Z,51.70
2018-09-19T10:40:24.400Z,50.60
2018-09-19T10:42:53.075Z,50.40
2018-09-19T10:45:21.694Z,49.80
2018-09-19T10:47:50.344Z,50.00
2018-09-19T10:50:18.997Z,50.40
2018-09-19T10:52:47.668Z,49.80
2018-09-19T10:55:16.325Z,49.10
2018-09-19T10:57:44.964Z,48.60
2018-09-19T11:00:14.011Z,48.90
2018-09-19T11:02:42.993Z,48.60
2018-09-19T11:05:13.011Z,48.40
2018-09-19T11:07:41.681Z,48.40
2018-09-19T11:10:10.427Z,48.20
2018-09-19T11:12:39.126Z,47.90
2018-09-19T11:15:07.772Z,47.40
2018-09-19T11:17:36.443Z,46.70
2018-09-19T11:20:05.288Z,47.70
2018-09-19T11:22:33.980Z,46.30
2018-09-19T11:25:02.621Z,46.10
2018-09-19T11:27:31.273Z,46.10
2018-09-19T11:29:59.928Z,46.00
2018-09-19T11:32:28.589Z,45.20
2018-09-19T11:34:57.248Z,44.80
2018-09-19T11:37:25.876Z,44.70
2018-09-19T11:39:54.510Z,45.30
2018-09-19T11:42:23.192Z,44.60
2018-09-19T11:44:51.851Z,45.00
2018-09-19T11:47:20.480Z,44.90
2018-09-19T11:49:49.096Z,45.00
2018-09-19T11:52:17.829Z,44.70
2018-09-19T11:54:46.525Z,44.50
2018-09-19T11:57:15.185Z,44.40
2018-09-19T11:59:43.857Z,44.70
2018-09-19T12:02:12.632Z,44.90
2018-09-19T12:04:41.312Z,45.00
2018-09-19T12:07:10.143Z,45.00
2018-09-19T12:09:38.786Z,45.30
2018-09-19T12:12:07.574Z,45.00
2018-09-19T12:14:36.206Z,44.50
2018-09-19T12:17:04.905Z,44.60
2018-09-19T12:19:33.629Z,45.10
2018-09-19T12:22:02.281Z,44.20
2018-09-19T12:24:30.907Z,43.90
2018-09-19T12:26:59.576Z,44.10
2018-09-19T12:29:28.261Z,44.00
2018-09-19T12:31:56.916Z,43.70
2018-09-19T12:34:25.589Z,43.80
2018-09-19T12:36:54.253Z,43.90
2018-09-19T12:39:22.920Z,43.70
2018-09-19T12:41:51.577Z,43.60
2018-09-19T12:44:20.225Z,43.90
2018-09-19T12:46:48.863Z,43.90
2018-09-19T12:49:17.628Z,44.00
2018-09-19T12:51:46.282Z,44.30
2018-09-19T12:54:14.920Z,44.10
2018-09-19T12:56:43.758Z,44.30
2018-09-19T12:59:12.518Z,43.80
2018-09-19T13:01:41.185Z,43.70
2018-09-19T13:04:09.836Z,44.30
2018-09-19T13:06:38.498Z,44.50
2018-09-19T13:09:09.722Z,44.10
2018-09-19T13:11:38.581Z,43.80
2018-09-19T13:14:07.384Z,44.10
2018-09-19T13:16:36.048Z,44.50
2018-09-19T13:19:04.706Z,44.00
2018-09-19T13:21:33.340Z,43.50
2018-09-19T13:24:02.033Z,43.90
2018-09-19T13:26:30.730Z,43.90
2018-09-19T13:28:59.416Z,43.40
2018-09-19T13:31:28.303Z,43.70
2018-09-19T13:33:56.951Z,44.60
2018-09-19T13:36:25.604Z,45.00
2018-09-19T13:38:54.257Z,44.00
2018-09-19T13:41:22.896Z,43.70
2018-09-19T13:43:51.580Z,44.00
2018-09-19T13:46:20.344Z,44.00
2018-09-19T13:48:53.255Z,44.30
2018-09-19T13:51:23.709Z,44.70
2018-09-19T13:53:52.521Z,44.70
2018-09-19T13:56:21.603Z,44.80
2018-09-19T13:58:50.281Z,45.20
2018-09-19T14:01:19.024Z,45.80
2018-09-19T14:03:47.676Z,46.60
2018-09-19T14:06:16.485Z,46.70
2018-09-19T14:08:45.228Z,46.70
2018-09-19T14:11:13.867Z,47.00
2018-09-19T14:13:42.501Z,47.20
2018-09-19T14:16:11.217Z,47.00
2018-09-19T14:18:39.856Z,47.00
2018-09-19T14:21:08.553Z,47.30
2018-09-19T14:23:37.215Z,47.30
2018-09-19T14:26:05.880Z,47.60
2018-09-19T14:28:34.553Z,48.00
2018-09-19T14:31:03.205Z,47.90
2018-09-19T14:33:31.989Z,48.20
2018-09-19T14:36:00.682Z,48.00
2018-09-19T14:38:29.459Z,48.10
2018-09-19T14:40:58.104Z,48.30
2018-09-19T14:43:26.764Z,48.30
2018-09-19T14:45:55.408Z,48.40
2018-09-19T14:48:24.146Z,48.70
2018-09-19T14:50:52.784Z,48.90
2018-09-19T14:53:21.428Z,48.70
2018-09-19T14:55:50.105Z,48.90
2018-09-19T14:58:19.073Z,48.90
2018-09-19T15:00:47.689Z,48.90
2018-09-19T15:03:16.361Z,48.80
2018-09-19T15:05:45.000Z,48.70
2018-09-19T15:08:13.626Z,48.60
2018-09-19T15:10:42.285Z,48.60
2018-09-19T15:13:10.942Z,48.60
2018-09-19T15:15:39.752Z,48.60
2018-09-19T15:18:08.432Z,48.90
2018-09-19T15:20:37.068Z,48.90
2018-09-19T15:23:05.735Z,48.90
2018-09-19T15:25:34.408Z,48.90
2018-09-19T15:28:03.024Z,49.10
2018-09-19T15:30:31.733Z,49.30
2018-09-19T15:33:00.604Z,49.30
2018-09-19T15:35:29.236Z,49.40
2018-09-19T15:37:57.881Z,49.60
2018-09-19T15:40:26.508Z,49.50
2018-09-19T15:42:55.182Z,49.70
2018-09-19T15:45:23.816Z,49.70
2018-09-19T15:47:52.440Z,49.50
2018-09-19T15:50:21.084Z,49.60
2018-09-19T15:52:49.753Z,49.50
2018-09-19T15:55:18.408Z,49.60
2018-09-19T15:57:47.123Z,49.40
2018-09-19T16:00:16.848Z,49.40
2018-09-19T16:02:45.535Z,49.60
2018-09-19T16:05:14.173Z,50.00
2018-09-19T16:07:42.953Z,50.10
2018-09-19T16:10:11.600Z,49.90
2018-09-19T16:12:40.252Z,50.10
2018-09-19T16:15:08.885Z,50.80
2018-09-19T16:17:37.539Z,50.40
2018-09-19T16:20:06.192Z,50.70
2018-09-19T16:22:34.846Z,50.50
2018-09-19T16:25:03.538Z,50.90
2018-09-19T16:27:32.202Z,51.20
2018-09-19T16:30:00.868Z,51.60
2018-09-19T16:32:29.572Z,51.30
2018-09-19T16:34:58.222Z,51.20
2018-09-19T16:37:26.857Z,51.20
2018-09-19T16:39:55.488Z,51.00
2018-09-19T16:42:24.147Z,51.10
2018-09-19T16:44:53.305Z,51.30
2018-09-19T16:47:22.177Z,52.00
2018-09-19T16:49:50.945Z,52.00
2018-09-19T16:52:19.630Z,52.50
2018-09-19T16:54:48.280Z,52.50
2018-09-19T16:57:16.929Z,52.80
2018-09-19T16:59:45.553Z,52.80
2018-09-19T17:02:14.204Z,53.00
2018-09-19T17:04:42.924Z,53.20
2018-09-19T17:07:11.629Z,53.40
2018-09-19T17:09:40.294Z,53.60
2018-09-19T17:12:09.011Z,53.70
2018-09-19T17:14:37.649Z,53.80
2018-09-19T17:17:06.312Z,54.00
2018-09-19T17:19:34.951Z,54.40
2018-09-19T17:22:03.588Z,54.50
2018-09-19T17:24:32.250Z,54.70
2018-09-19T17:27:00.885Z,54.90
2018-09-19T17:29:29.558Z,55.10
2018-09-19T17:31:58.352Z,55.40
2018-09-19T17:34:26.986Z,55.40
2018-09-19T17:36:55.612Z,55.60
2018-09-19T17:39:24.279Z,55.80
2018-09-19T17:41:52.953Z,56.10
2018-09-19T17:44:21.620Z,56.30
2018-09-19T17:46:50.297Z,56.40
2018-09-19T17:49:18.983Z,56.60
2018-09-19T17:51:47.718Z,56.60
2018-09-19T17:54:16.388Z,56.60
2018-09-19T17:56:45.086Z,56.80
2018-09-19T17:59:13.760Z,57.20
2018-09-19T18:01:46.225Z,57.40
2018-09-19T18:04:14.878Z,57.60
2018-09-19T18:06:43.488Z,58.00
2018-09-19T18:09:12.116Z,58.00
2018-09-19T18:11:41.181Z,58.30
2018-09-19T18:14:09.796Z,58.90
2018-09-19T18:16:38.429Z,58.70
2018-09-19T18:19:07.053Z,59.50
2018-09-19T18:21:35.697Z,59.60
2018-09-19T18:24:04.340Z,59.90
2018-09-19T18:26:32.957Z,60.10
2018-09-19T18:29:01.577Z,60.80
2018-09-19T18:31:30.260Z,61.10
2018-09-19T18:33:58.920Z,61.10
2018-09-19T18:36:27.548Z,61.20
2018-09-19T18:38:56.200Z,61.90
2018-09-19T18:41:24.834Z,62.20
2018-09-19T18:43:53.459Z,62.70
2018-09-19T18:46:22.111Z,62.90
2018-09-19T18:48:50.729Z,62.30
2018-09-19T18:51:19.379Z,62.30
2018-09-19T18:53:48.008Z,62.10
2018-09-19T18:56:16.648Z,62.10
2018-09-19T18:58:45.344Z,61.90
2018-09-19T19:01:13.980Z,61.90
2018-09-19T19:03:42.623Z,62.10
2018-09-19T19:06:11.256Z,62.40
2018-09-19T19:08:39.913Z,62.60
2018-09-19T19:11:08.796Z,62.80
2018-09-19T19:13:37.441Z,63.10
2018-09-19T19:16:06.096Z,63.20
2018-09-19T19:18:34.769Z,63.70
2018-09-19T19:21:03.382Z,64.10
2018-09-19T19:23:32.008Z,64.30
2018-09-19T19:26:00.687Z,64.50
2018-09-19T19:28:29.349Z,64.60
2018-09-19T19:30:57.980Z,64.90
2018-09-19T19:33:26.609Z,65.20
2018-09-19T19:35:55.258Z,65.60
2018-09-19T19:38:23.909Z,66.00
2018-09-19T19:40:52.560Z,66.50
2018-09-19T19:43:21.188Z,67.00
2018-09-19T19:45:49.812Z,66.90
2018-09-19T19:48:18.440Z,67.70
2018-09-19T19:50:47.055Z,68.20
2018-09-19T19:53:15.756Z,68.50
2018-09-19T19:55:44.342Z,68.70
2018-09-19T19:58:12.960Z,68.80
2018-09-19T20:00:41.628Z,68.80
2018-09-19T20:03:10.283Z,69.30
2018-09-19T20:05:38.901Z,69.50
2018-09-19T20:08:07.597Z,70.00
2018-09-19T20:10:36.566Z,70.10
2018-09-19T20:13:05.672Z,70.60
2018-09-19T20:15:34.360Z,71.10
2018-09-19T20:18:03.015Z,71.90
2018-09-19T20:20:31.621Z,72.50
2018-09-19T20:23:00.245Z,72.40
2018-09-19T20:25:28.870Z,72.70
2018-09-19T20:27:57.488Z,72.20
2018-09-19T20:30:26.092Z,72.10
2018-09-19T20:32:54.704Z,71.90
2018-09-19T20:35:23.321Z,72.50
2018-09-19T20:37:52.164Z,73.50
2018-09-19T20:40:20.786Z,74.00
2018-09-19T20:42:49.441Z,74.70
2018-09-19T20:45:18.148Z,74.20
2018-09-19T20:47:46.832Z,74.00
2018-09-19T20:50:15.502Z,73.70
2018-09-19T20:52:44.133Z,73.70
2018-09-19T20:55:12.772Z,73.80
2018-09-19T20:57:41.392Z,74.10
2018-09-19T21:00:10.041Z,74.20
2018-09-19T21:02:38.652Z,74.50
2018-09-19T21:05:24.970Z,74.80
2018-09-19T21:07:58.163Z,75.20
2018-09-19T21:10:27.673Z,75.60
2018-09-19T21:12:59.117Z,75.70
2018-09-19T21:15:28.357Z,75.80
2018-09-19T21:17:57.035Z,76.50
2018-09-19T21:20:25.727Z,76.80
2018-09-19T21:22:54.393Z,77.30
2018-09-19T21:25:23.057Z,77.60
2018-09-19T21:27:51.696Z,77.10
2018-09-19T21:30:20.358Z,76.80
2018-09-19T21:32:49.000Z,76.80
2018-09-19T21:35:17.661Z,76.80
2018-09-19T21:37:46.317Z,77.20
2018-09-19T21:40:15.017Z,77.60
2018-09-19T21:42:43.672Z,78.10
2018-09-19T21:45:12.310Z,78.30
2018-09-19T21:47:40.978Z,78.60
2018-09-19T21:50:09.640Z,78.70
2018-09-19T21:52:38.316Z,79.10
2018-09-19T21:55:06.993Z,79.40
2018-09-19T21:57:35.645Z,79.80
2018-09-19T22:00:05.293Z,80.20
2018-09-19T22:02:33.977Z,80.70
2018-09-19T22:05:02.641Z,81.20
2018-09-19T22:07:31.957Z,81.90
2018-09-19T22:10:00.623Z,82.10
2018-09-19T22:12:29.297Z,82.20
2018-09-19T22:14:57.980Z,82.20
2018-09-19T22:17:26.641Z,82.40
2018-09-19T22:19:55.323Z,82.60
2018-09-19T22:22:23.965Z,83.10
2018-09-19T22:24:52.634Z,83.00
2018-09-19T22:27:21.305Z,83.10
2018-09-19T22:29:49.994Z,83.50
2018-09-19T22:32:18.644Z,83.70
2018-09-19T22:34:47.327Z,84.10
2018-09-19T22:37:16.012Z,84.40
2018-09-19T22:39:44.842Z,84.80
2018-09-19T22:42:13.500Z,85.40
2018-09-19T22:44:42.192Z,85.80
2018-09-19T22:47:10.896Z,86.10
2018-09-19T22:49:39.570Z,86.80
2018-09-19T22:52:08.261Z,87.20
2018-09-19T22:54:36.968Z,87.60
2018-09-19T22:57:05.717Z,87.80
2018-09-19T22:59:34.424Z,88.20
2018-09-19T23:02:03.101Z,88.50
2018-09-19T23:05:00.901Z,88.50
2018-09-19T23:07:58.728Z,87.70
2018-09-19T23:10:27.471Z,86.40
2018-09-19T23:12:56.156Z,86.70
2018-09-19T23:15:24.857Z,87.70
2018-09-19T23:17:53.521Z,88.20
2018-09-19T23:20:22.237Z,88.70
2018-09-19T23:22:50.915Z,89.30
2018-09-19T23:25:19.582Z,89.80
2018-09-19T23:27:48.256Z,90.00
2018-09-19T23:30:16.929Z,90.20
2018-09-19T23:32:45.643Z,90.30
2018-09-19T23:35:14.297Z,90.40
2018-09-19T23:37:42.965Z,90.60
2018-09-19T23:40:11.645Z,90.70
2018-09-19T23:42:40.275Z,90.70
2018-09-19T23:45:08.972Z,90.70
2018-09-19T23:47:37.639Z,90.90
2018-09-19T23:50:06.449Z,90.80
2018-09-19T23:52:35.138Z,90.70
2018-09-19T23:55:03.855Z,90.60
2018-09-19T23:57:32.554Z,90.70
